ラロトンガ の空港の天気 - METARとTAF

ラロトンガ国際空港 ( NCRG / RAR ) - クック諸島 アバルア (ラロトンガ島)
飛行場実況気象(Metar)
観測時間04/21 06:30 CKT (04/21 16:30 UTC)
風向・風速東南東 3m/s
視程10km以上
天気現象
なし
気温23℃
湿度61%
気圧1016hPa
METARNCRG 211630Z AUTO 12006KT 070V170 9999 NCD 23/15 Q1016
過去の天気等 Google飛行場航空写真 Wunderground天気予報

過去48時間のMETAR

飛行場予報(TAF)
発表時間: 4/21 01:26 CKT (4/21 11:26 UTC)
予報対象時間: 21日2時 CKT ~ 22日2時 CKT
風向・風速南東 3m/s
視程10km以上
全天の4割程度の雲 雲底高度 550m
全天の4割程度の雲 雲底高度 1520m
21日23時 CKT から
風向・風速南東 8m/s 瞬間風速 13m/s
視程10km以上
全天の4割程度の雲 雲底高度 610m
全天の8割程度の雲 雲底高度 1370m
TAF NCRG 211126Z 2112/2212 13005KT 9999 SCT018 SCT050
FM220900 13015G25KT 9999 SCT020 BKN045